Time;durP1;ratioP1;P1;durP2;ratioP2;P2;SDS_P1;SDS_P2;PMS_P1;PMS_P2;Temp;Humidity;BMP_temperature;BMP_pressure;BME280_temperature;BME280_humidity;BME280_pressure;Samples;Min_cycle;Max_cycle;Signal;HPM_P1;HPM_P2
2020/12/08 00:01:37;;;;;;;12.95;11.65;;;;;;;;;;5069360;28;20657;-56
2020/12/08 00:04:02;;;;;;;13.60;12.20;;;;;;;;;;5068110;28;20205;-56
2020/12/08 00:06:27;;;;;;;14.47;12.97;;;;;;;;;;5069531;28;20171;-56
2020/12/08 00:08:52;;;;;;;14.63;13.23;;;;;;;;;;5069844;28;20660;-56
2020/12/08 00:11:18;;;;;;;13.17;11.70;;;;;;;;;;5068426;28;20527;-56
2020/12/08 00:13:45;;;;;;;13.70;12.40;;;;;;;;;;5063402;28;20265;-56
2020/12/08 00:16:11;;;;;;;12.57;11.37;;;;;;;;;;5069388;28;20756;-57
2020/12/08 00:18:36;;;;;;;13.77;12.47;;;;;;;;;;5069043;28;20690;-56
2020/12/08 00:21:01;;;;;;;11.83;10.73;;;;;;;;;;5069412;28;20196;-57
2020/12/08 00:23:26;;;;;;;13.10;11.82;;;;;;;;;;5065116;28;20207;-56
2020/12/08 00:25:52;;;;;;;13.55;12.10;;;;;;;;;;5069583;28;20225;-56
2020/12/08 00:28:17;;;;;;;12.93;11.60;;;;;;;;;;5069015;28;20520;-56
2020/12/08 00:30:42;;;;;;;14.60;12.45;;;;;;;;;;5069267;28;20203;-56
2020/12/08 00:33:07;;;;;;;13.02;11.40;;;;;;;;;;5069320;28;20184;-56
2020/12/08 00:35:32;;;;;;;11.90;10.77;;;;;;;;;;5064686;28;20183;-56
2020/12/08 00:37:57;;;;;;;12.07;10.95;;;;;;;;;;5069148;28;20238;-57
2020/12/08 00:40:22;;;;;;;13.70;12.30;;;;;;;;;;5068974;28;20179;-56
2020/12/08 00:42:48;;;;;;;13.07;11.85;;;;;;;;;;5069052;28;20235;-56
2020/12/08 00:45:13;;;;;;;14.13;12.73;;;;;;;;;;5062114;28;20178;-56
2020/12/08 00:47:38;;;;;;;12.43;11.30;;;;;;;;;;5065477;28;20626;-56
2020/12/08 00:50:04;;;;;;;13.70;12.30;;;;;;;;;;5069183;28;20269;-57
2020/12/08 00:52:29;;;;;;;13.90;12.60;;;;;;;;;;5068637;28;20178;-56
2020/12/08 00:54:54;;;;;;;13.53;11.80;;;;;;;;;;5069241;28;20262;-55
2020/12/08 00:57:20;;;;;;;13.52;12.13;;;;;;;;;;5069023;28;20192;-56
2020/12/08 00:59:45;;;;;;;13.67;12.27;;;;;;;;;;5067839;28;20626;-56
2020/12/08 01:02:13;;;;;;;13.48;12.07;;;;;;;;;;5071402;28;20681;-57
2020/12/08 01:04:38;;;;;;;13.53;12.13;;;;;;;;;;5070591;28;20600;-56
2020/12/08 01:07:03;;;;;;;12.60;11.30;;;;;;;;;;5073150;28;21009;-56
2020/12/08 01:09:28;;;;;;;14.48;12.98;;;;;;;;;;5073054;28;20631;-57
2020/12/08 01:11:53;;;;;;;14.00;12.57;;;;;;;;;;5072323;28;20184;-57
2020/12/08 01:14:18;;;;;;;14.10;12.70;;;;;;;;;;5066686;28;20222;-57
2020/12/08 01:16:43;;;;;;;13.83;12.50;;;;;;;;;;5068754;28;20720;-56
2020/12/08 01:19:09;;;;;;;13.00;11.73;;;;;;;;;;5065580;28;20216;-56
2020/12/08 01:21:34;;;;;;;12.73;11.53;;;;;;;;;;5072919;28;20184;-56
2020/12/08 01:23:59;;;;;;;13.63;12.23;;;;;;;;;;5070412;28;20214;-56
2020/12/08 01:26:25;;;;;;;13.40;12.10;;;;;;;;;;5069551;28;20642;-55
2020/12/08 01:28:50;;;;;;;14.20;12.70;;;;;;;;;;5072196;28;20222;-56
2020/12/08 01:31:16;;;;;;;13.77;12.37;;;;;;;;;;5072466;28;20578;-59
2020/12/08 01:33:41;;;;;;;13.17;11.87;;;;;;;;;;5070627;28;20642;-56
2020/12/08 01:36:06;;;;;;;13.97;12.63;;;;;;;;;;5072026;28;20182;-56
2020/12/08 01:38:31;;;;;;;13.10;11.80;;;;;;;;;;5071761;28;20791;-55
2020/12/08 01:40:56;;;;;;;13.98;12.57;;;;;;;;;;5071615;28;20261;-56
2020/12/08 01:43:22;;;;;;;13.30;12.00;;;;;;;;;;5072408;28;20194;-56
2020/12/08 01:45:47;;;;;;;14.07;12.70;;;;;;;;;;5070331;28;20530;-56
2020/12/08 01:48:14;;;;;;;16.13;14.00;;;;;;;;;;5072480;28;20172;-55
2020/12/08 01:50:39;;;;;;;12.80;11.63;;;;;;;;;;5068737;28;20576;-56
2020/12/08 01:53:04;;;;;;;15.35;13.85;;;;;;;;;;5072262;28;21005;-56
2020/12/08 01:55:29;;;;;;;14.48;12.98;;;;;;;;;;5070166;28;20655;-57
2020/12/08 01:57:54;;;;;;;14.10;12.73;;;;;;;;;;5071939;28;20338;-56
2020/12/08 02:00:19;;;;;;;14.60;13.20;;;;;;;;;;5070660;28;20182;-56
2020/12/08 02:02:44;;;;;;;15.57;13.97;;;;;;;;;;5072277;28;20285;-56
2020/12/08 02:05:10;;;;;;;16.92;13.48;;;;;;;;;;5069735;28;20173;-56
2020/12/08 02:07:41;;;;;;;14.18;12.77;;;;;;;;;;5072111;28;20183;-56
2020/12/08 02:10:06;;;;;;;14.40;12.90;;;;;;;;;;5072010;28;20202;-56
2020/12/08 02:12:31;;;;;;;16.95;15.02;;;;;;;;;;5069889;28;20593;-56
2020/12/08 02:14:57;;;;;;;15.80;14.20;;;;;;;;;;5069293;28;20550;-56
2020/12/08 02:17:22;;;;;;;15.95;14.32;;;;;;;;;;5071778;28;20578;-57
2020/12/08 02:19:48;;;;;;;16.13;14.40;;;;;;;;;;5071843;28;20537;-56
2020/12/08 02:22:13;;;;;;;15.83;13.70;;;;;;;;;;5070996;28;20245;-56
2020/12/08 02:24:38;;;;;;;15.40;13.37;;;;;;;;;;5068540;28;20590;-56
2020/12/08 02:27:03;;;;;;;16.90;15.20;;;;;;;;;;5071785;28;20168;-57
2020/12/08 02:29:28;;;;;;;19.58;17.30;;;;;;;;;;5071223;28;20171;-56
2020/12/08 02:31:53;;;;;;;24.48;19.70;;;;;;;;;;5071899;28;20409;-56
2020/12/08 02:34:18;;;;;;;24.80;21.30;;;;;;;;;;5067074;28;20176;-56
2020/12/08 02:36:45;;;;;;;27.70;22.20;;;;;;;;;;5070197;28;20171;-56
2020/12/08 02:39:10;;;;;;;26.93;23.43;;;;;;;;;;5071039;28;20203;-56
2020/12/08 02:41:35;;;;;;;28.00;23.80;;;;;;;;;;5071302;28;20630;-56
2020/12/08 02:44:01;;;;;;;25.75;22.95;;;;;;;;;;5069581;28;20200;-56
2020/12/08 02:46:26;;;;;;;25.97;23.13;;;;;;;;;;5070598;28;20652;-56
2020/12/08 02:48:51;;;;;;;24.90;21.95;;;;;;;;;;5070710;28;20634;-62
2020/12/08 02:51:17;;;;;;;26.25;23.30;;;;;;;;;;5070935;28;20681;-56
2020/12/08 02:53:42;;;;;;;23.70;21.10;;;;;;;;;;5063574;28;20184;-56
2020/12/08 02:56:07;;;;;;;25.50;22.27;;;;;;;;;;5067416;28;20172;-56
2020/12/08 02:58:32;;;;;;;24.60;21.65;;;;;;;;;;5070190;28;20546;-56
2020/12/08 03:00:57;;;;;;;25.10;22.35;;;;;;;;;;5069007;28;20183;-56
2020/12/08 03:03:22;;;;;;;23.87;21.33;;;;;;;;;;5070455;28;20227;-55
2020/12/08 03:05:48;;;;;;;23.27;20.70;;;;;;;;;;5068589;28;20252;-56
2020/12/08 03:08:13;;;;;;;22.73;20.37;;;;;;;;;;5071027;28;20194;-56
2020/12/08 03:10:38;;;;;;;23.10;20.60;;;;;;;;;;5070674;28;20256;-56
2020/12/08 03:13:03;;;;;;;25.02;21.15;;;;;;;;;;5069781;28;20873;-56
2020/12/08 03:15:28;;;;;;;23.30;20.80;;;;;;;;;;5066309;28;20682;-56
2020/12/08 03:17:53;;;;;;;23.45;20.25;;;;;;;;;;5070317;28;20212;-55
2020/12/08 03:20:19;;;;;;;24.77;22.15;;;;;;;;;;5070673;28;20177;-57
2020/12/08 03:22:44;;;;;;;23.65;21.13;;;;;;;;;;5070211;28;20264;-56
2020/12/08 03:25:09;;;;;;;22.50;19.70;;;;;;;;;;5065349;28;20191;-56
2020/12/08 03:27:36;;;;;;;22.92;20.42;;;;;;;;;;5068461;28;20576;-57
2020/12/08 03:30:01;;;;;;;22.33;19.93;;;;;;;;;;5069899;28;20179;-57
2020/12/08 03:32:27;;;;;;;22.50;20.10;;;;;;;;;;5070718;28;20608;-55
2020/12/08 03:34:52;;;;;;;23.13;20.73;;;;;;;;;;5067586;28;20218;-56
2020/12/08 03:37:17;;;;;;;23.50;20.38;;;;;;;;;;5070203;28;20181;-57
2020/12/08 03:39:42;;;;;;;24.00;21.05;;;;;;;;;;5068938;28;20249;-57
2020/12/08 03:42:07;;;;;;;24.27;21.67;;;;;;;;;;5070053;28;20669;-56
2020/12/08 03:44:32;;;;;;;23.70;20.63;;;;;;;;;;5067889;28;20320;-56
2020/12/08 03:46:58;;;;;;;22.20;19.83;;;;;;;;;;5067557;28;20261;-56
2020/12/08 03:49:26;;;;;;;23.73;20.60;;;;;;;;;;5069742;28;20172;-56
2020/12/08 03:51:55;;;;;;;21.80;19.20;;;;;;;;;;5069958;28;20289;-56
2020/12/08 03:54:20;;;;;;;21.80;19.50;;;;;;;;;;5069566;28;20598;-56
2020/12/08 03:56:45;;;;;;;24.23;20.27;;;;;;;;;;5061399;28;20625;-56
2020/12/08 03:59:10;;;;;;;23.40;21.00;;;;;;;;;;5067261;28;20545;-56
2020/12/08 04:01:35;;;;;;;21.20;18.97;;;;;;;;;;5069568;28;20195;-56
2020/12/08 04:04:00;;;;;;;22.48;20.15;;;;;;;;;;5069427;28;20930;-56
2020/12/08 04:06:26;;;;;;;20.95;18.80;;;;;;;;;;5067670;28;20667;-56
2020/12/08 04:08:51;;;;;;;21.67;19.38;;;;;;;;;;5067564;28;20198;-57
2020/12/08 04:11:16;;;;;;;21.33;19.03;;;;;;;;;;5068598;28;20185;-57
2020/12/08 04:13:42;;;;;;;22.03;19.60;;;;;;;;;;5068959;28;20208;-57
2020/12/08 04:16:13;;;;;;;21.50;19.30;;;;;;;;;;5065829;28;20219;-57
2020/12/08 04:18:38;;;;;;;21.03;17.50;;;;;;;;;;5069414;28;20267;-58
2020/12/08 04:21:03;;;;;;;24.00;19.23;;;;;;;;;;5070015;28;20690;-57
2020/12/08 04:23:28;;;;;;;20.80;18.60;;;;;;;;;;5060710;28;20199;-57
2020/12/08 04:25:54;;;;;;;20.17;18.08;;;;;;;;;;5064603;28;20178;-57
2020/12/08 04:28:19;;;;;;;20.70;17.95;;;;;;;;;;5065534;28;20174;-57
2020/12/08 04:30:44;;;;;;;21.58;19.33;;;;;;;;;;5065929;28;20779;-58
2020/12/08 04:33:09;;;;;;;20.73;18.38;;;;;;;;;;5066300;28;20261;-57
2020/12/08 04:35:34;;;;;;;21.55;19.13;;;;;;;;;;5062756;28;20252;-56
2020/12/08 04:38:00;;;;;;;20.90;18.70;;;;;;;;;;5065520;28;20656;-57
2020/12/08 04:40:25;;;;;;;22.17;19.50;;;;;;;;;;5065880;28;20181;-57
2020/12/08 04:42:53;;;;;;;20.03;17.93;;;;;;;;;;5066492;28;20570;-57
2020/12/08 04:45:19;;;;;;;20.40;18.17;;;;;;;;;;5056447;28;20639;-57
2020/12/08 04:47:45;;;;;;;21.00;18.90;;;;;;;;;;5068171;28;20660;-57
2020/12/08 04:50:11;;;;;;;19.90;17.60;;;;;;;;;;5065742;28;20284;-57
2020/12/08 04:52:36;;;;;;;19.70;17.70;;;;;;;;;;5066432;28;20639;-57
2020/12/08 04:55:02;;;;;;;19.83;17.80;;;;;;;;;;5060828;28;20598;-58
2020/12/08 04:57:27;;;;;;;21.17;17.87;;;;;;;;;;5065776;28;20205;-60
2020/12/08 05:00:11;;;;;;;19.50;17.53;;;;;;;;;;5064405;28;20595;-57
2020/12/08 05:02:49;;;;;;;21.37;17.77;;;;;;;;;;5068885;28;20209;-57
2020/12/08 05:05:15;;;;;;;20.80;18.27;;;;;;;;;;5067041;28;20658;-58
2020/12/08 05:07:41;;;;;;;21.30;18.60;;;;;;;;;;5068585;28;20655;-58
2020/12/08 05:10:06;;;;;;;21.30;19.00;;;;;;;;;;5067430;28;20595;-58
2020/12/08 05:12:31;;;;;;;20.77;18.63;;;;;;;;;;5065052;28;20182;-58
2020/12/08 05:14:56;;;;;;;20.93;18.73;;;;;;;;;;5066494;28;20266;-58
2020/12/08 05:17:22;;;;;;;20.87;18.67;;;;;;;;;;5069151;28;20175;-58
2020/12/08 05:19:47;;;;;;;22.37;19.37;;;;;;;;;;5065081;28;20212;-57
2020/12/08 05:22:13;;;;;;;21.57;19.37;;;;;;;;;;5067970;28;20685;-58
2020/12/08 05:24:38;;;;;;;19.67;17.53;;;;;;;;;;5065535;28;20188;-58
2020/12/08 05:27:04;;;;;;;23.67;20.13;;;;;;;;;;5065832;28;20176;-57
2020/12/08 05:29:30;;;;;;;22.40;19.57;;;;;;;;;;5065192;28;20174;-58
2020/12/08 05:31:55;;;;;;;20.93;18.67;;;;;;;;;;5067784;28;20595;-58
2020/12/08 05:34:21;;;;;;;22.77;19.90;;;;;;;;;;5067256;28;20781;-58
2020/12/08 05:36:47;;;;;;;21.40;19.10;;;;;;;;;;5065361;28;20222;-58
2020/12/08 05:39:15;;;;;;;22.50;20.10;;;;;;;;;;5062251;28;20178;-59
2020/12/08 05:41:42;;;;;;;21.37;18.90;;;;;;;;;;5061956;28;21413;-59
2020/12/08 05:44:08;;;;;;;23.67;19.80;;;;;;;;;;5065661;28;20670;-58
2020/12/08 05:46:39;;;;;;;22.80;20.40;;;;;;;;;;5064076;28;21163;-57
2020/12/08 05:49:04;;;;;;;21.33;18.83;;;;;;;;;;5063949;28;20536;-57
2020/12/08 05:51:30;;;;;;;20.50;18.30;;;;;;;;;;5062111;28;20991;-57
2020/12/08 05:53:55;;;;;;;20.47;18.33;;;;;;;;;;5060838;28;20187;-58
2020/12/08 05:56:20;;;;;;;19.80;17.70;;;;;;;;;;5066817;28;20662;-58
2020/12/08 05:58:53;;;;;;;20.55;18.33;;;;;;;;;;5068785;28;20185;-58
2020/12/08 06:01:18;;;;;;;22.50;19.40;;;;;;;;;;5068442;28;20187;-58
2020/12/08 06:03:52;;;;;;;20.83;18.63;;;;;;;;;;5066894;28;20644;-59
2020/12/08 06:06:17;;;;;;;21.67;19.40;;;;;;;;;;5062430;28;20192;-59
2020/12/08 06:08:43;;;;;;;21.25;18.48;;;;;;;;;;5066280;28;20601;-58
2020/12/08 06:11:08;;;;;;;22.87;18.57;;;;;;;;;;5068924;28;20167;-59
2020/12/08 06:13:33;;;;;;;21.60;19.10;;;;;;;;;;5067116;28;20637;-59
2020/12/08 06:15:59;;;;;;;21.30;19.00;;;;;;;;;;5065730;28;20812;-59
2020/12/08 06:18:31;;;;;;;21.77;19.17;;;;;;;;;;5065814;28;20169;-59
2020/12/08 06:20:57;;;;;;;22.57;19.93;;;;;;;;;;5071127;28;20464;-58
2020/12/08 06:23:22;;;;;;;21.47;19.17;;;;;;;;;;5069714;28;20644;-57
2020/12/08 06:25:54;;;;;;;20.90;18.67;;;;;;;;;;5068922;28;20179;-57
2020/12/08 06:28:20;;;;;;;20.13;17.87;;;;;;;;;;5071476;28;20170;-57
2020/12/08 06:30:45;;;;;;;21.27;18.97;;;;;;;;;;5070765;28;20639;-58
2020/12/08 06:33:11;;;;;;;21.10;18.27;;;;;;;;;;5070845;28;20175;-57
2020/12/08 06:35:36;;;;;;;20.60;18.40;;;;;;;;;;5069475;28;20175;-57
2020/12/08 06:38:01;;;;;;;24.60;20.77;;;;;;;;;;5071361;28;20907;-58
2020/12/08 06:40:27;;;;;;;21.83;19.47;;;;;;;;;;5071322;28;20902;-57
2020/12/08 06:42:52;;;;;;;22.20;19.30;;;;;;;;;;5071135;28;20191;-57
2020/12/08 06:45:18;;;;;;;21.13;18.93;;;;;;;;;;5066789;28;20523;-58
2020/12/08 06:47:44;;;;;;;21.30;19.10;;;;;;;;;;5069846;28;20178;-58
2020/12/08 06:50:23;;;;;;;22.00;18.23;;;;;;;;;;5071055;28;20695;-58
2020/12/08 06:52:51;;;;;;;20.23;18.13;;;;;;;;;;5071119;28;20608;-58
2020/12/08 06:55:17;;;;;;;20.23;18.03;;;;;;;;;;5069962;28;21130;-58
2020/12/08 06:57:42;;;;;;;25.58;19.75;;;;;;;;;;5069369;28;21273;-58
2020/12/08 07:00:08;;;;;;;21.43;19.23;;;;;;;;;;5070177;28;20183;-57
2020/12/08 07:02:40;;;;;;;23.00;20.40;;;;;;;;;;5070811;28;20188;-57
2020/12/08 07:05:06;;;;;;;20.47;17.50;;;;;;;;;;5065347;28;20597;-57
2020/12/08 07:07:31;;;;;;;21.97;19.67;;;;;;;;;;5069103;28;20680;-57
2020/12/08 07:09:58;;;;;;;19.73;17.63;;;;;;;;;;5070309;28;20252;-58
2020/12/08 07:12:23;;;;;;;20.43;18.33;;;;;;;;;;5070557;28;20254;-58
2020/12/08 07:14:56;;;;;;;21.30;19.00;;;;;;;;;;5070016;28;20595;-58
2020/12/08 07:17:27;;;;;;;21.07;17.57;;;;;;;;;;5065143;28;20218;-58
2020/12/08 07:19:52;;;;;;;22.10;18.50;;;;;;;;;;5070745;28;21217;-57
2020/12/08 07:22:17;;;;;;;21.20;18.23;;;;;;;;;;5070186;28;21326;-57
2020/12/08 07:24:43;;;;;;;22.40;17.90;;;;;;;;;;5070684;28;20232;-57
2020/12/08 07:27:08;;;;;;;20.83;18.20;;;;;;;;;;5062063;28;20173;-57
2020/12/08 07:29:33;;;;;;;21.13;18.43;;;;;;;;;;5070247;28;20211;-58
2020/12/08 07:31:59;;;;;;;23.23;18.83;;;;;;;;;;5070269;28;20171;-58
2020/12/08 07:34:24;;;;;;;20.02;17.88;;;;;;;;;;5070308;28;20181;-58
2020/12/08 07:36:49;;;;;;;20.65;18.42;;;;;;;;;;5065412;28;20189;-58
2020/12/08 07:39:18;;;;;;;19.90;17.30;;;;;;;;;;5070250;28;20574;-58
2020/12/08 07:41:43;;;;;;;22.77;20.00;;;;;;;;;;5070374;28;20201;-57
2020/12/08 07:44:12;;;;;;;20.00;17.90;;;;;;;;;;5070159;28;21083;-58
2020/12/08 07:46:37;;;;;;;19.47;16.57;;;;;;;;;;5064975;28;20189;-58
2020/12/08 07:49:04;;;;;;;19.53;17.33;;;;;;;;;;5065558;28;20592;-58
2020/12/08 07:51:29;;;;;;;19.90;17.77;;;;;;;;;;5070308;28;20251;-57
2020/12/08 07:53:54;;;;;;;19.30;17.27;;;;;;;;;;5070151;28;20715;-58
2020/12/08 07:56:23;;;;;;;21.27;17.97;;;;;;;;;;5067478;28;20195;-58
2020/12/08 07:58:48;;;;;;;19.30;17.23;;;;;;;;;;5066620;28;20661;-57
2020/12/08 08:01:13;;;;;;;19.13;17.10;;;;;;;;;;5068942;28;21185;-57
2020/12/08 08:03:38;;;;;;;19.98;17.55;;;;;;;;;;5067923;28;20205;-57
2020/12/08 08:06:04;;;;;;;18.83;16.77;;;;;;;;;;5067874;28;20182;-58
2020/12/08 08:08:29;;;;;;;22.52;17.92;;;;;;;;;;5063266;28;20214;-58
2020/12/08 08:10:54;;;;;;;19.40;16.65;;;;;;;;;;5069112;28;20657;-58
2020/12/08 08:13:20;;;;;;;19.73;16.75;;;;;;;;;;5069219;28;20223;-58
2020/12/08 08:15:45;;;;;;;21.03;17.10;;;;;;;;;;5069318;28;20241;-57
2020/12/08 08:18:10;;;;;;;18.33;16.40;;;;;;;;;;5065167;28;20600;-58
2020/12/08 08:20:35;;;;;;;18.63;16.67;;;;;;;;;;5068658;28;20641;-58
2020/12/08 08:23:01;;;;;;;19.80;17.73;;;;;;;;;;5069660;28;20192;-56
2020/12/08 08:25:26;;;;;;;17.23;15.40;;;;;;;;;;5069308;28;20184;-58
2020/12/08 08:27:51;;;;;;;17.80;15.87;;;;;;;;;;5067977;28;20664;-58
2020/12/08 08:30:16;;;;;;;17.90;16.00;;;;;;;;;;5060812;28;20182;-58
2020/12/08 08:32:41;;;;;;;19.23;17.23;;;;;;;;;;5069495;28;20183;-57
2020/12/08 08:35:06;;;;;;;17.00;14.88;;;;;;;;;;5069511;28;20186;-57
2020/12/08 08:37:32;;;;;;;19.53;17.53;;;;;;;;;;5067313;28;20187;-57
2020/12/08 08:39:57;;;;;;;18.13;16.23;;;;;;;;;;5064148;28;20181;-58
2020/12/08 08:42:22;;;;;;;17.42;15.65;;;;;;;;;;5069334;28;20200;-58
2020/12/08 08:44:47;;;;;;;17.30;15.50;;;;;;;;;;5069382;28;20180;-58
2020/12/08 08:47:12;;;;;;;16.73;15.00;;;;;;;;;;5065839;28;20171;-58
2020/12/08 08:49:38;;;;;;;17.52;15.40;;;;;;;;;;5066982;28;20179;-58
2020/12/08 08:52:03;;;;;;;16.90;14.50;;;;;;;;;;5069089;28;20236;-57
2020/12/08 08:54:28;;;;;;;17.00;15.17;;;;;;;;;;5069442;28;20164;-58
2020/12/08 08:56:53;;;;;;;17.42;15.13;;;;;;;;;;5068739;28;20201;-58
2020/12/08 08:59:19;;;;;;;17.30;15.50;;;;;;;;;;5069047;28;20637;-57
2020/12/08 09:01:44;;;;;;;19.05;15.57;;;;;;;;;;5067573;28;20201;-57
2020/12/08 09:04:09;;;;;;;15.63;13.88;;;;;;;;;;5069004;28;20199;-58
2020/12/08 09:06:34;;;;;;;17.13;14.50;;;;;;;;;;5068972;28;20746;-57
2020/12/08 09:08:59;;;;;;;15.75;14.15;;;;;;;;;;5067098;28;20190;-57
2020/12/08 09:11:26;;;;;;;16.27;14.40;;;;;;;;;;5064425;28;20178;-57
2020/12/08 09:13:51;;;;;;;16.77;14.97;;;;;;;;;;5069204;28;20182;-58
2020/12/08 09:16:16;;;;;;;16.15;14.55;;;;;;;;;;5068074;28;20643;-57
2020/12/08 09:18:42;;;;;;;15.77;14.07;;;;;;;;;;5067483;28;20228;-58
2020/12/08 09:21:07;;;;;;;30.90;27.77;;;;;;;;;;5067621;28;20261;-58
2020/12/08 09:23:32;;;;;;;17.98;16.17;;;;;;;;;;5069756;28;20667;-57
2020/12/08 09:25:58;;;;;;;16.63;14.55;;;;;;;;;;5072624;28;20166;-58
2020/12/08 09:28:24;;;;;;;15.70;14.10;;;;;;;;;;5070217;28;20186;-58
2020/12/08 09:30:49;;;;;;;14.43;13.03;;;;;;;;;;5072926;28;20594;-57
2020/12/08 09:33:15;;;;;;;15.90;14.30;;;;;;;;;;5065441;28;21041;-58
2020/12/08 09:35:40;;;;;;;17.53;14.37;;;;;;;;;;5072363;28;20179;-58
2020/12/08 09:38:05;;;;;;;15.63;13.77;;;;;;;;;;5068835;28;20207;-57
2020/12/08 09:40:31;;;;;;;15.73;13.03;;;;;;;;;;5072073;28;20180;-58
2020/12/08 09:42:56;;;;;;;15.47;13.40;;;;;;;;;;5067580;28;20759;-58
2020/12/08 09:45:21;;;;;;;17.60;14.55;;;;;;;;;;5072379;28;20210;-57
2020/12/08 09:47:46;;;;;;;15.87;13.57;;;;;;;;;;5070342;28;20228;-57
2020/12/08 09:50:12;;;;;;;15.17;13.67;;;;;;;;;;5072352;28;20191;-57
2020/12/08 09:52:37;;;;;;;15.00;13.50;;;;;;;;;;5070852;28;20185;-58
2020/12/08 09:55:03;;;;;;;15.20;13.60;;;;;;;;;;5071774;28;20187;-58
2020/12/08 09:57:28;;;;;;;14.53;13.03;;;;;;;;;;5069868;28;20289;-58
2020/12/08 09:59:53;;;;;;;14.57;12.97;;;;;;;;;;5071104;28;20208;-58
2020/12/08 10:02:19;;;;;;;14.60;13.00;;;;;;;;;;5069263;28;20194;-58
2020/12/08 10:04:45;;;;;;;17.40;13.17;;;;;;;;;;5069857;28;20172;-62
2020/12/08 10:07:14;;;;;;;15.00;13.50;;;;;;;;;;5069131;28;21005;-60
2020/12/08 10:09:39;;;;;;;16.23;13.47;;;;;;;;;;5070090;28;20167;-58
2020/12/08 10:12:04;;;;;;;15.70;14.20;;;;;;;;;;5070826;28;21093;-56
2020/12/08 10:14:29;;;;;;;14.75;12.40;;;;;;;;;;5071116;28;20541;-56
2020/12/08 10:16:55;;;;;;;16.10;14.10;;;;;;;;;;5069381;28;20746;-56
2020/12/08 10:19:20;;;;;;;14.02;12.68;;;;;;;;;;5072661;28;20174;-57
2020/12/08 10:22:36;;;;;;;;;;;;;;;;;;;;;
2020/12/08 10:25:02;;;;;;;13.93;11.53;;;;;;;;;;5034831;28;20236;-58
2020/12/08 10:27:27;;;;;;;13.30;11.90;;;;;;;;;;5068853;28;21044;-57
2020/12/08 10:29:52;;;;;;;12.88;11.57;;;;;;;;;;5070255;28;20180;-58
2020/12/08 10:32:18;;;;;;;15.00;13.37;;;;;;;;;;5071433;28;20187;-57
2020/12/08 10:34:43;;;;;;;13.83;12.43;;;;;;;;;;5069804;28;20187;-58
2020/12/08 10:37:09;;;;;;;12.70;11.40;;;;;;;;;;5070588;28;20185;-58
2020/12/08 10:39:34;;;;;;;12.98;11.75;;;;;;;;;;5070494;28;20608;-59
2020/12/08 10:41:59;;;;;;;12.85;11.60;;;;;;;;;;5070355;28;20215;-58
2020/12/08 10:44:24;;;;;;;13.70;12.30;;;;;;;;;;5070670;28;20199;-59
2020/12/08 10:46:51;;;;;;;13.30;12.00;;;;;;;;;;5062671;28;20172;-57
2020/12/08 10:49:16;;;;;;;13.47;12.17;;;;;;;;;;5067184;28;20176;-58
2020/12/08 10:51:41;;;;;;;12.80;11.60;;;;;;;;;;5078089;28;20626;-57
2020/12/08 10:54:06;;;;;;;14.40;11.93;;;;;;;;;;5072047;28;20669;-57
2020/12/08 10:56:31;;;;;;;13.37;11.20;;;;;;;;;;5070893;28;20263;-57
2020/12/08 10:58:56;;;;;;;13.57;12.27;;;;;;;;;;5067231;28;20184;-58
2020/12/08 11:01:22;;;;;;;11.95;10.70;;;;;;;;;;5067376;28;20173;-57
2020/12/08 11:03:48;;;;;;;12.77;11.33;;;;;;;;;;5069572;28;20203;-57
2020/12/08 11:06:20;;;;;;;14.30;12.30;;;;;;;;;;5071010;28;20961;-57
2020/12/08 11:08:46;;;;;;;13.00;11.23;;;;;;;;;;5067756;28;20216;-57
2020/12/08 11:11:11;;;;;;;12.90;11.60;;;;;;;;;;5071131;28;20585;-57
2020/12/08 11:13:36;;;;;;;11.50;10.30;;;;;;;;;;5064729;28;20680;-58
2020/12/08 11:16:03;;;;;;;13.85;12.45;;;;;;;;;;5070145;28;20328;-57
2020/12/08 11:18:28;;;;;;;15.33;13.93;;;;;;;;;;5066008;28;20190;-57
2020/12/08 11:20:53;;;;;;;14.90;13.35;;;;;;;;;;5070182;28;20589;-57
2020/12/08 11:23:18;;;;;;;15.23;13.47;;;;;;;;;;5070277;28;20205;-57
2020/12/08 11:25:43;;;;;;;14.03;12.73;;;;;;;;;;5066146;28;20178;-57
2020/12/08 11:28:08;;;;;;;14.48;13.00;;;;;;;;;;5062654;28;20164;-57
2020/12/08 11:30:34;;;;;;;12.90;11.60;;;;;;;;;;5066982;28;20200;-57
2020/12/08 11:32:59;;;;;;;13.40;12.10;;;;;;;;;;5066881;28;20284;-57
2020/12/08 11:35:24;;;;;;;15.23;13.10;;;;;;;;;;5064619;28;20233;-57
2020/12/08 11:37:49;;;;;;;13.57;12.27;;;;;;;;;;5062792;28;20177;-57
2020/12/08 11:40:15;;;;;;;13.13;11.82;;;;;;;;;;5066913;28;20626;-57
2020/12/08 11:42:40;;;;;;;15.50;13.10;;;;;;;;;;5066830;28;20231;-57
2020/12/08 11:45:05;;;;;;;12.73;11.43;;;;;;;;;;5057560;28;20592;-57
2020/12/08 11:47:31;;;;;;;12.77;11.47;;;;;;;;;;5063407;28;20690;-57
2020/12/08 11:49:56;;;;;;;13.38;12.07;;;;;;;;;;5065468;28;20186;-57
2020/12/08 11:52:21;;;;;;;12.07;10.95;;;;;;;;;;5065674;28;20719;-57
2020/12/08 11:54:46;;;;;;;13.63;11.73;;;;;;;;;;5064108;28;20233;-57
2020/12/08 11:57:11;;;;;;;12.98;11.77;;;;;;;;;;5061352;28;20181;-57
2020/12/08 11:59:36;;;;;;;13.32;11.77;;;;;;;;;;5062073;28;20200;-57
2020/12/08 12:02:02;;;;;;;12.90;11.47;;;;;;;;;;5066096;28;20161;-57
2020/12/08 12:04:27;;;;;;;13.07;11.77;;;;;;;;;;5066827;28;20200;-57
2020/12/08 12:06:52;;;;;;;12.15;10.95;;;;;;;;;;5065526;28;20167;-57
2020/12/08 12:09:17;;;;;;;13.70;12.30;;;;;;;;;;5067253;28;20173;-57
2020/12/08 12:11:42;;;;;;;11.47;10.27;;;;;;;;;;5069329;28;20282;-57
2020/12/08 12:14:07;;;;;;;12.95;11.68;;;;;;;;;;5069612;28;20197;-57
2020/12/08 12:16:33;;;;;;;13.75;12.25;;;;;;;;;;5069319;28;20213;-57
2020/12/08 12:18:58;;;;;;;12.77;11.47;;;;;;;;;;5066066;28;20183;-57
2020/12/08 12:21:23;;;;;;;12.77;11.37;;;;;;;;;;5063106;28;20649;-57
2020/12/08 12:23:48;;;;;;;13.73;12.07;;;;;;;;;;5069679;28;20206;-56
2020/12/08 12:26:13;;;;;;;12.87;11.63;;;;;;;;;;5069460;28;20654;-57
2020/12/08 12:28:38;;;;;;;12.93;11.67;;;;;;;;;;5067921;28;20175;-57
2020/12/08 12:31:09;;;;;;;13.60;12.20;;;;;;;;;;5069512;28;20764;-57
2020/12/08 12:33:35;;;;;;;14.50;12.57;;;;;;;;;;5065745;28;20263;-57
2020/12/08 12:36:00;;;;;;;14.27;12.87;;;;;;;;;;5063040;28;20693;-57
2020/12/08 12:38:25;;;;;;;13.33;11.97;;;;;;;;;;5061759;28;20634;-58
2020/12/08 12:40:50;;;;;;;12.20;11.05;;;;;;;;;;5069851;28;20200;-58
2020/12/08 12:43:15;;;;;;;12.50;11.30;;;;;;;;;;5068918;28;20567;-57
2020/12/08 12:45:41;;;;;;;12.50;11.20;;;;;;;;;;5068327;28;20203;-57
2020/12/08 12:48:06;;;;;;;14.03;12.50;;;;;;;;;;5067167;28;20189;-58
2020/12/08 12:50:31;;;;;;;12.95;11.55;;;;;;;;;;5068653;28;20188;-57
2020/12/08 12:52:56;;;;;;;13.53;12.23;;;;;;;;;;5069945;28;20186;-58
2020/12/08 12:55:21;;;;;;;14.32;12.18;;;;;;;;;;5063039;28;20362;-57
2020/12/08 12:57:46;;;;;;;12.82;11.63;;;;;;;;;;5069603;28;20187;-57
2020/12/08 13:00:11;;;;;;;12.80;11.50;;;;;;;;;;5079193;28;20172;-57
2020/12/08 13:02:37;;;;;;;13.73;11.50;;;;;;;;;;5073456;28;20302;-58
2020/12/08 13:05:02;;;;;;;12.90;11.70;;;;;;;;;;5077853;28;20174;-58
2020/12/08 13:07:27;;;;;;;13.50;12.23;;;;;;;;;;5072146;28;20182;-57
2020/12/08 13:09:52;;;;;;;14.90;12.35;;;;;;;;;;5070572;28;20182;-58
2020/12/08 13:12:18;;;;;;;15.00;13.50;;;;;;;;;;5071563;28;20168;-58
2020/12/08 13:14:43;;;;;;;14.05;12.65;;;;;;;;;;5071135;28;20174;-57
2020/12/08 13:17:09;;;;;;;16.20;13.00;;;;;;;;;;5072498;28;20563;-58
2020/12/08 13:19:35;;;;;;;14.20;12.77;;;;;;;;;;5064777;28;20183;-57
2020/12/08 13:22:01;;;;;;;14.50;12.47;;;;;;;;;;5067501;28;20594;-57
2020/12/08 13:24:26;;;;;;;13.47;12.10;;;;;;;;;;5071469;28;20726;-58
2020/12/08 13:26:51;;;;;;;13.50;12.20;;;;;;;;;;5072339;28;21266;-58
2020/12/08 13:29:16;;;;;;;13.63;12.33;;;;;;;;;;5070365;28;20219;-58
2020/12/08 13:31:45;;;;;;;14.05;12.65;;;;;;;;;;5070233;28;20262;-58
2020/12/08 13:34:11;;;;;;;13.60;12.20;;;;;;;;;;5069725;28;20245;-57
2020/12/08 13:36:36;;;;;;;14.50;13.10;;;;;;;;;;5060685;28;20607;-58
2020/12/08 13:39:01;;;;;;;16.00;14.40;;;;;;;;;;5069009;28;20180;-58
2020/12/08 13:41:26;;;;;;;13.85;12.45;;;;;;;;;;5068427;28;20189;-57
2020/12/08 13:43:51;;;;;;;15.53;13.93;;;;;;;;;;5069419;28;20699;-58
2020/12/08 13:46:21;;;;;;;15.40;13.33;;;;;;;;;;5072690;28;20189;-58
2020/12/08 13:48:46;;;;;;;16.10;14.40;;;;;;;;;;5070338;28;20179;-58
2020/12/08 13:51:11;;;;;;;15.40;13.93;;;;;;;;;;5072341;28;20588;-57
2020/12/08 13:53:36;;;;;;;15.80;14.10;;;;;;;;;;5072191;28;20187;-58
2020/12/08 13:56:01;;;;;;;17.92;15.43;;;;;;;;;;5068671;28;20170;-58
2020/12/08 13:58:27;;;;;;;16.35;14.68;;;;;;;;;;5066481;28;20306;-57
2020/12/08 14:00:52;;;;;;;16.10;14.60;;;;;;;;;;5070404;28;20188;-58
2020/12/08 14:03:18;;;;;;;15.95;14.35;;;;;;;;;;5071276;28;20643;-57
2020/12/08 14:05:43;;;;;;;16.17;14.48;;;;;;;;;;5070460;28;20171;-57
2020/12/08 14:08:08;;;;;;;15.63;14.13;;;;;;;;;;5064930;28;20227;-57
2020/12/08 14:10:49;;;;;;;16.50;14.90;;;;;;;;;;5062604;28;20853;-57